sensor_id;sensor_type;location;lat;lon;timestamp;pressure;altitude;pressure_sealevel;temperature;humidity
59110;BME280;44895;47.438;18.978;2022-08-01T00:00:40;99856.78;;;15.97;100.00
59110;BME280;44895;47.438;18.978;2022-08-01T00:03:43;99849.31;;;15.86;100.00
59110;BME280;44895;47.438;18.978;2022-08-01T00:06:47;99851.72;;;15.87;100.00
59110;BME280;44895;47.438;18.978;2022-08-01T00:09:51;99855.41;;;15.61;100.00
59110;BME280;44895;47.438;18.978;2022-08-01T00:12:55;99850.69;;;15.71;100.00
59110;BME280;44895;47.438;18.978;2022-08-01T00:15:59;99852.22;;;15.59;100.00
59110;BME280;44895;47.438;18.978;2022-08-01T00:19:03;99842.94;;;15.73;100.00
59110;BME280;44895;47.438;18.978;2022-08-01T00:22:06;99843.00;;;15.64;100.00
59110;BME280;44895;47.438;18.978;2022-08-01T00:25:10;99843.28;;;15.71;100.00
59110;BME280;44895;47.438;18.978;2022-08-01T00:28:14;99847.81;;;15.67;100.00
59110;BME280;44895;47.438;18.978;2022-08-01T00:31:17;99840.72;;;15.45;100.00
59110;BME280;44895;47.438;18.978;2022-08-01T00:34:21;99833.50;;;15.40;100.00
59110;BME280;44895;47.438;18.978;2022-08-01T00:37:25;99827.38;;;15.43;100.00
59110;BME280;44895;47.438;18.978;2022-08-01T00:40:29;99832.84;;;15.43;100.00
59110;BME280;44895;47.438;18.978;2022-08-01T00:43:33;99829.50;;;15.38;100.00
59110;BME280;44895;47.438;18.978;2022-08-01T00:46:37;99829.44;;;15.46;100.00
59110;BME280;44895;47.438;18.978;2022-08-01T00:49:41;99829.50;;;15.38;100.00
59110;BME280;44895;47.438;18.978;2022-08-01T00:52:44;99829.22;;;15.30;100.00
59110;BME280;44895;47.438;18.978;2022-08-01T00:55:48;99827.50;;;15.47;100.00
59110;BME280;44895;47.438;18.978;2022-08-01T00:58:53;99827.78;;;15.33;100.00
59110;BME280;44895;47.438;18.978;2022-08-01T01:01:57;99827.72;;;15.42;100.00
59110;BME280;44895;47.438;18.978;2022-08-01T01:05:01;99826.66;;;15.34;100.00
59110;BME280;44895;47.438;18.978;2022-08-01T01:08:08;99824.09;;;15.50;100.00
59110;BME280;44895;47.438;18.978;2022-08-01T01:11:26;99828.59;;;15.55;100.00
59110;BME280;44895;47.438;18.978;2022-08-01T01:14:55;99832.16;;;15.46;100.00
59110;BME280;44895;47.438;18.978;2022-08-01T01:18:07;99844.38;;;15.49;100.00
59110;BME280;44895;47.438;18.978;2022-08-01T01:30:57;99837.44;;;15.30;100.00
59110;BME280;44895;47.438;18.978;2022-08-01T01:34:02;99836.13;;;15.37;100.00
59110;BME280;44895;47.438;18.978;2022-08-01T01:37:09;99836.16;;;15.28;100.00
59110;BME280;44895;47.438;18.978;2022-08-01T01:40:15;99833.25;;;15.33;100.00
59110;BME280;44895;47.438;18.978;2022-08-01T01:43:21;99826.75;;;15.38;100.00
59110;BME280;44895;47.438;18.978;2022-08-01T01:46:28;99827.97;;;15.49;100.00
59110;BME280;44895;47.438;18.978;2022-08-01T01:49:33;99827.97;;;15.70;100.00
59110;BME280;44895;47.438;18.978;2022-08-01T01:52:39;99831.78;;;15.78;100.00
59110;BME280;44895;47.438;18.978;2022-08-01T01:55:46;99831.13;;;15.81;100.00
59110;BME280;44895;47.438;18.978;2022-08-01T01:58:53;99826.94;;;15.84;100.00
59110;BME280;44895;47.438;18.978;2022-08-01T02:01:59;99826.31;;;15.99;100.00
59110;BME280;44895;47.438;18.978;2022-08-01T02:05:06;99823.63;;;16.11;100.00
59110;BME280;44895;47.438;18.978;2022-08-01T02:08:14;99823.78;;;16.27;100.00
59110;BME280;44895;47.438;18.978;2022-08-01T02:11:22;99813.63;;;16.28;100.00
59110;BME280;44895;47.438;18.978;2022-08-01T02:14:26;99823.78;;;16.27;100.00
59110;BME280;44895;47.438;18.978;2022-08-01T02:17:37;99828.22;;;16.20;100.00
59110;BME280;44895;47.438;18.978;2022-08-01T02:20:43;99811.06;;;16.10;100.00
59110;BME280;44895;47.438;18.978;2022-08-01T02:23:48;99812.53;;;16.08;100.00
59110;BME280;44895;47.438;18.978;2022-08-01T02:27:01;99806.31;;;15.86;100.00
59110;BME280;44895;47.438;18.978;2022-08-01T02:30:08;99810.88;;;15.94;100.00
59110;BME280;44895;47.438;18.978;2022-08-01T02:33:18;99802.38;;;16.08;100.00
59110;BME280;44895;47.438;18.978;2022-08-01T02:36:26;99804.59;;;16.27;100.00
59110;BME280;44895;47.438;18.978;2022-08-01T02:39:31;99816.59;;;16.35;100.00
59110;BME280;44895;47.438;18.978;2022-08-01T02:42:37;99820.19;;;16.48;100.00
59110;BME280;44895;47.438;18.978;2022-08-01T02:45:48;99816.53;;;16.56;100.00
59110;BME280;44895;47.438;18.978;2022-08-01T02:48:55;99809.69;;;16.62;100.00
59110;BME280;44895;47.438;18.978;2022-08-01T02:52:05;99818.84;;;16.67;99.17
59110;BME280;44895;47.438;18.978;2022-08-01T02:55:10;99814.72;;;16.73;97.92
59110;BME280;44895;47.438;18.978;2022-08-01T02:58:15;99803.41;;;16.74;98.57
59110;BME280;44895;47.438;18.978;2022-08-01T03:01:21;99810.16;;;16.77;98.07
59110;BME280;44895;47.438;18.978;2022-08-01T03:04:26;99798.75;;;16.75;98.84
59110;BME280;44895;47.438;18.978;2022-08-01T03:07:31;99803.09;;;16.76;98.68
59110;BME280;44895;47.438;18.978;2022-08-01T03:10:38;99802.41;;;16.79;98.67
59110;BME280;44895;47.438;18.978;2022-08-01T03:13:44;99797.69;;;16.79;99.28
59110;BME280;44895;47.438;18.978;2022-08-01T03:16:49;99805.13;;;16.79;99.24
59110;BME280;44895;47.438;18.978;2022-08-01T03:20:02;99804.13;;;16.84;99.77
59110;BME280;44895;47.438;18.978;2022-08-01T03:23:08;99791.66;;;16.74;100.00
59110;BME280;44895;47.438;18.978;2022-08-01T03:26:13;99793.03;;;16.68;100.00
59110;BME280;44895;47.438;18.978;2022-08-01T03:29:20;99789.16;;;16.69;100.00
59110;BME280;44895;47.438;18.978;2022-08-01T03:32:25;99791.06;;;16.43;100.00
59110;BME280;44895;47.438;18.978;2022-08-01T03:35:34;99785.75;;;16.26;100.00
59110;BME280;44895;47.438;18.978;2022-08-01T03:38:40;99776.19;;;16.32;100.00
59110;BME280;44895;47.438;18.978;2022-08-01T03:41:51;99782.38;;;16.41;100.00
59110;BME280;44895;47.438;18.978;2022-08-01T03:45:03;99794.84;;;16.63;100.00
59110;BME280;44895;47.438;18.978;2022-08-01T03:48:17;99785.94;;;16.79;100.00
59110;BME280;44895;47.438;18.978;2022-08-01T03:51:22;99782.31;;;16.87;100.00
59110;BME280;44895;47.438;18.978;2022-08-01T03:54:31;99788.59;;;17.00;100.00
59110;BME280;44895;47.438;18.978;2022-08-01T03:57:37;99799.00;;;17.07;100.00
59110;BME280;44895;47.438;18.978;2022-08-01T04:00:41;99799.66;;;17.16;100.00
59110;BME280;44895;47.438;18.978;2022-08-01T04:03:46;99806.50;;;17.22;100.00
59110;BME280;44895;47.438;18.978;2022-08-01T04:06:50;99809.72;;;17.24;100.00
59110;BME280;44895;47.438;18.978;2022-08-01T04:09:57;99814.75;;;17.22;100.00
59110;BME280;44895;47.438;18.978;2022-08-01T04:13:01;99820.47;;;17.30;100.00
59110;BME280;44895;47.438;18.978;2022-08-01T04:16:05;99826.41;;;17.32;100.00
59110;BME280;44895;47.438;18.978;2022-08-01T04:19:09;99821.00;;;17.35;100.00
59110;BME280;44895;47.438;18.978;2022-08-01T04:22:14;99822.25;;;17.50;100.00
59110;BME280;44895;47.438;18.978;2022-08-01T04:25:38;99824.06;;;17.58;100.00
59110;BME280;44895;47.438;18.978;2022-08-01T04:28:44;99824.72;;;17.68;100.00
59110;BME280;44895;47.438;18.978;2022-08-01T04:31:49;99831.56;;;17.74;100.00
59110;BME280;44895;47.438;18.978;2022-08-01T04:34:55;99823.66;;;17.85;100.00
59110;BME280;44895;47.438;18.978;2022-08-01T04:38:01;99820.28;;;17.91;100.00
59110;BME280;44895;47.438;18.978;2022-08-01T04:41:07;99820.88;;;17.97;100.00
59110;BME280;44895;47.438;18.978;2022-08-01T04:44:13;99821.16;;;18.08;100.00
59110;BME280;44895;47.438;18.978;2022-08-01T04:47:18;99822.25;;;18.19;99.98
59110;BME280;44895;47.438;18.978;2022-08-01T04:50:22;99826.09;;;18.31;98.78
59110;BME280;44895;47.438;18.978;2022-08-01T04:53:28;99819.72;;;18.42;97.63
59110;BME280;44895;47.438;18.978;2022-08-01T04:56:31;99826.66;;;18.52;97.35
59110;BME280;44895;47.438;18.978;2022-08-01T04:59:38;99824.16;;;18.63;96.40
59110;BME280;44895;47.438;18.978;2022-08-01T05:02:44;99829.59;;;18.75;95.20
59110;BME280;44895;47.438;18.978;2022-08-01T05:05:49;99816.78;;;18.83;95.05
59110;BME280;44895;47.438;18.978;2022-08-01T05:08:53;99816.28;;;18.94;94.07
59110;BME280;44895;47.438;18.978;2022-08-01T05:12:02;99822.50;;;19.06;92.63
59110;BME280;44895;47.438;18.978;2022-08-01T05:15:06;99831.44;;;19.19;92.76
59110;BME280;44895;47.438;18.978;2022-08-01T05:18:10;99817.19;;;19.33;91.59
59110;BME280;44895;47.438;18.978;2022-08-01T05:21:14;99818.75;;;19.50;91.21
59110;BME280;44895;47.438;18.978;2022-08-01T05:24:18;99817.00;;;19.62;90.71
59110;BME280;44895;47.438;18.978;2022-08-01T05:27:21;99827.59;;;19.79;89.43
59110;BME280;44895;47.438;18.978;2022-08-01T05:30:25;99819.22;;;19.92;88.02
59110;BME280;44895;47.438;18.978;2022-08-01T05:33:29;99813.28;;;20.09;86.72
59110;BME280;44895;47.438;18.978;2022-08-01T05:36:33;99815.28;;;20.32;85.14
59110;BME280;44895;47.438;18.978;2022-08-01T05:39:36;99815.19;;;20.51;84.82
59110;BME280;44895;47.438;18.978;2022-08-01T05:42:40;99820.91;;;20.85;82.44
59110;BME280;44895;47.438;18.978;2022-08-01T05:45:44;99811.06;;;24.87;67.24
59110;BME280;44895;47.438;18.978;2022-08-01T05:48:49;99808.00;;;29.70;49.05
59110;BME280;44895;47.438;18.978;2022-08-01T05:51:53;99811.66;;;31.23;42.30
59110;BME280;44895;47.438;18.978;2022-08-01T05:54:56;99813.19;;;32.09;39.98
59110;BME280;44895;47.438;18.978;2022-08-01T05:58:01;99810.69;;;32.75;37.11
59110;BME280;44895;47.438;18.978;2022-08-01T06:01:05;99806.28;;;33.89;34.67
59110;BME280;44895;47.438;18.978;2022-08-01T06:04:08;99810.75;;;33.55;35.17
59110;BME280;44895;47.438;18.978;2022-08-01T06:07:12;99810.97;;;35.20;32.47
59110;BME280;44895;47.438;18.978;2022-08-01T06:10:17;99816.44;;;35.33;32.59
59110;BME280;44895;47.438;18.978;2022-08-01T06:13:21;99815.78;;;35.66;31.89
59110;BME280;44895;47.438;18.978;2022-08-01T06:16:26;99818.06;;;36.38;30.21
59110;BME280;44895;47.438;18.978;2022-08-01T06:19:30;99823.03;;;36.52;29.68
59110;BME280;44895;47.438;18.978;2022-08-01T06:22:34;99822.19;;;37.25;28.75
59110;BME280;44895;47.438;18.978;2022-08-01T06:25:37;99813.81;;;36.91;29.53
59110;BME280;44895;47.438;18.978;2022-08-01T06:28:41;99821.75;;;37.41;27.66
59110;BME280;44895;47.438;18.978;2022-08-01T06:31:45;99816.47;;;38.44;27.16
59110;BME280;44895;47.438;18.978;2022-08-01T06:34:49;99828.09;;;37.66;27.07
59110;BME280;44895;47.438;18.978;2022-08-01T06:37:53;99819.09;;;38.69;26.09
59110;BME280;44895;47.438;18.978;2022-08-01T06:40:56;99822.63;;;37.77;27.00
59110;BME280;44895;47.438;18.978;2022-08-01T06:44:00;99821.44;;;35.66;29.70
59110;BME280;44895;47.438;18.978;2022-08-01T06:47:05;99830.72;;;33.12;34.42
59110;BME280;44895;47.438;18.978;2022-08-01T06:50:09;99825.16;;;36.24;30.19
59110;BME280;44895;47.438;18.978;2022-08-01T06:53:14;99811.88;;;37.96;26.88
59110;BME280;44895;47.438;18.978;2022-08-01T06:56:17;99814.34;;;36.80;28.85
59110;BME280;44895;47.438;18.978;2022-08-01T06:59:21;99817.66;;;34.17;32.24
59110;BME280;44895;47.438;18.978;2022-08-01T07:02:25;99823.50;;;31.86;35.75
59110;BME280;44895;47.438;18.978;2022-08-01T07:05:28;99815.28;;;30.74;37.94
59110;BME280;44895;47.438;18.978;2022-08-01T07:08:34;99808.44;;;30.91;37.96
59110;BME280;44895;47.438;18.978;2022-08-01T07:11:38;99806.22;;;30.53;39.06
59110;BME280;44895;47.438;18.978;2022-08-01T07:14:42;99796.84;;;33.60;34.12
59110;BME280;44895;47.438;18.978;2022-08-01T07:17:46;99809.25;;;32.06;36.46
59110;BME280;44895;47.438;18.978;2022-08-01T07:20:50;99799.97;;;32.22;35.65
59110;BME280;44895;47.438;18.978;2022-08-01T07:23:53;99803.69;;;30.22;38.95
59110;BME280;44895;47.438;18.978;2022-08-01T07:26:57;99801.31;;;29.84;40.48
59110;BME280;44895;47.438;18.978;2022-08-01T07:30:01;99808.38;;;30.46;39.70
59110;BME280;44895;47.438;18.978;2022-08-01T07:33:04;99811.69;;;29.67;40.60
59110;BME280;44895;47.438;18.978;2022-08-01T07:36:08;99805.34;;;30.20;39.11
59110;BME280;44895;47.438;18.978;2022-08-01T07:39:12;99804.72;;;29.96;37.87
59110;BME280;44895;47.438;18.978;2022-08-01T07:42:16;99812.63;;;29.40;40.07
59110;BME280;44895;47.438;18.978;2022-08-01T07:45:20;99810.50;;;29.24;40.33
59110;BME280;44895;47.438;18.978;2022-08-01T07:48:24;99806.41;;;29.33;40.31
59110;BME280;44895;47.438;18.978;2022-08-01T07:51:28;99810.78;;;29.10;41.93
59110;BME280;44895;47.438;18.978;2022-08-01T07:54:32;99809.00;;;28.76;42.08
59110;BME280;44895;47.438;18.978;2022-08-01T07:57:36;99809.75;;;28.76;42.54
59110;BME280;44895;47.438;18.978;2022-08-01T08:00:40;99806.44;;;28.85;42.02
59110;BME280;44895;47.438;18.978;2022-08-01T08:03:44;99810.69;;;28.70;42.84
59110;BME280;44895;47.438;18.978;2022-08-01T08:06:48;99808.34;;;28.13;42.67
59110;BME280;44895;47.438;18.978;2022-08-01T08:09:52;99819.91;;;27.81;43.57
59110;BME280;44895;47.438;18.978;2022-08-01T08:12:56;99818.50;;;27.65;43.58
59110;BME280;44895;47.438;18.978;2022-08-01T08:15:59;99826.75;;;27.42;43.94
59110;BME280;44895;47.438;18.978;2022-08-01T08:19:03;99825.28;;;27.30;45.68
59110;BME280;44895;47.438;18.978;2022-08-01T08:22:07;99822.06;;;27.31;44.84
59110;BME280;44895;47.438;18.978;2022-08-01T08:25:11;99835.53;;;27.40;45.28
59110;BME280;44895;47.438;18.978;2022-08-01T08:28:15;99839.09;;;26.99;43.12
59110;BME280;44895;47.438;18.978;2022-08-01T08:31:19;99839.16;;;26.92;44.12
59110;BME280;44895;47.438;18.978;2022-08-01T08:34:23;99839.75;;;26.61;44.86
59110;BME280;44895;47.438;18.978;2022-08-01T08:37:27;99842.69;;;26.40;45.31
59110;BME280;44895;47.438;18.978;2022-08-01T08:40:31;99860.28;;;26.26;46.43
59110;BME280;44895;47.438;18.978;2022-08-01T08:43:37;99857.59;;;26.08;46.58
59110;BME280;44895;47.438;18.978;2022-08-01T08:46:44;99855.25;;;26.06;46.15
59110;BME280;44895;47.438;18.978;2022-08-01T08:49:50;99858.41;;;26.01;48.10
59110;BME280;44895;47.438;18.978;2022-08-01T08:52:55;99867.19;;;25.88;48.93
59110;BME280;44895;47.438;18.978;2022-08-01T08:55:59;99867.63;;;25.87;48.74
59110;BME280;44895;47.438;18.978;2022-08-01T08:59:04;99859.69;;;25.85;49.47
59110;BME280;44895;47.438;18.978;2022-08-01T09:02:08;99865.25;;;25.85;49.38
59110;BME280;44895;47.438;18.978;2022-08-01T09:05:12;99856.16;;;25.70;48.31
59110;BME280;44895;47.438;18.978;2022-08-01T09:08:16;99856.09;;;25.81;48.06
59110;BME280;44895;47.438;18.978;2022-08-01T09:11:20;99850.50;;;25.88;48.23
59110;BME280;44895;47.438;18.978;2022-08-01T09:14:25;99859.28;;;25.76;48.59
59110;BME280;44895;47.438;18.978;2022-08-01T09:17:40;99854.13;;;25.82;47.78
59110;BME280;44895;47.438;18.978;2022-08-01T09:20:44;99853.22;;;26.03;48.05
59110;BME280;44895;47.438;18.978;2022-08-01T09:23:51;99856.38;;;26.16;49.15
59110;BME280;44895;47.438;18.978;2022-08-01T09:26:55;99851.28;;;25.96;48.85
59110;BME280;44895;47.438;18.978;2022-08-01T09:30:14;99849.69;;;26.06;48.58
59110;BME280;44895;47.438;18.978;2022-08-01T09:33:18;99848.47;;;26.03;48.62
59110;BME280;44895;47.438;18.978;2022-08-01T09:36:24;99853.19;;;26.21;49.67
59110;BME280;44895;47.438;18.978;2022-08-01T09:39:31;99851.19;;;26.18;48.66
59110;BME280;44895;47.438;18.978;2022-08-01T09:42:34;99850.44;;;26.10;49.13
59110;BME280;44895;47.438;18.978;2022-08-01T09:45:38;99852.03;;;26.11;48.17
59110;BME280;44895;47.438;18.978;2022-08-01T09:49:01;99851.59;;;26.16;47.49
59110;BME280;44895;47.438;18.978;2022-08-01T09:55:21;99841.63;;;26.26;47.17
59110;BME280;44895;47.438;18.978;2022-08-01T09:58:25;99847.09;;;26.37;46.79
59110;BME280;44895;47.438;18.978;2022-08-01T10:01:45;99858.59;;;26.43;47.60
59110;BME280;44895;47.438;18.978;2022-08-01T10:04:50;99846.63;;;26.49;47.40
59110;BME280;44895;47.438;18.978;2022-08-01T10:08:00;99855.66;;;26.64;47.42
59110;BME280;44895;47.438;18.978;2022-08-01T10:11:11;99851.63;;;26.69;46.30
59110;BME280;44895;47.438;18.978;2022-08-01T10:14:15;99853.63;;;26.72;46.43
59110;BME280;44895;47.438;18.978;2022-08-01T10:17:25;99847.22;;;26.79;46.36
59110;BME280;44895;47.438;18.978;2022-08-01T10:20:30;99853.06;;;26.92;46.13
59110;BME280;44895;47.438;18.978;2022-08-01T10:23:36;99847.91;;;26.94;45.51
59110;BME280;44895;47.438;18.978;2022-08-01T10:26:40;99846.25;;;27.00;45.39
59110;BME280;44895;47.438;18.978;2022-08-01T10:29:51;99845.03;;;27.05;45.26
59110;BME280;44895;47.438;18.978;2022-08-01T10:32:58;99843.28;;;27.18;46.01
59110;BME280;44895;47.438;18.978;2022-08-01T10:36:02;99839.28;;;27.23;44.79
59110;BME280;44895;47.438;18.978;2022-08-01T10:39:06;99828.38;;;27.35;44.93
59110;BME280;44895;47.438;18.978;2022-08-01T10:42:11;99832.00;;;27.32;43.12
59110;BME280;44895;47.438;18.978;2022-08-01T10:45:15;99827.94;;;27.41;43.30
59110;BME280;44895;47.438;18.978;2022-08-01T10:51:53;99822.84;;;27.66;44.00
59110;BME280;44895;47.438;18.978;2022-08-01T10:55:08;99818.59;;;27.58;44.34
59110;BME280;44895;47.438;18.978;2022-08-01T10:58:20;99822.09;;;27.66;44.70
59110;BME280;44895;47.438;18.978;2022-08-01T11:01:31;99813.75;;;27.62;43.21
59110;BME280;44895;47.438;18.978;2022-08-01T11:04:48;99817.00;;;27.57;44.73
59110;BME280;44895;47.438;18.978;2022-08-01T11:08:25;99813.47;;;27.53;43.31
59110;BME280;44895;47.438;18.978;2022-08-01T11:11:29;99815.91;;;27.47;43.52
59110;BME280;44895;47.438;18.978;2022-08-01T11:14:34;99817.34;;;27.63;43.46
59110;BME280;44895;47.438;18.978;2022-08-01T11:17:59;99812.94;;;27.65;43.35
59110;BME280;44895;47.438;18.978;2022-08-01T11:21:03;99808.22;;;27.59;44.13
59110;BME280;44895;47.438;18.978;2022-08-01T11:24:07;99802.66;;;27.59;43.16
59110;BME280;44895;47.438;18.978;2022-08-01T11:27:25;99791.53;;;27.55;42.64
59110;BME280;44895;47.438;18.978;2022-08-01T11:30:29;99794.63;;;27.64;43.52
59110;BME280;44895;47.438;18.978;2022-08-01T11:36:47;99799.16;;;27.51;43.17
59110;BME280;44895;47.438;18.978;2022-08-01T11:43:20;99787.84;;;27.93;42.70
59110;BME280;44895;47.438;18.978;2022-08-01T11:49:49;99790.69;;;28.20;41.82
59110;BME280;44895;47.438;18.978;2022-08-01T11:53:04;99788.78;;;28.41;42.17
59110;BME280;44895;47.438;18.978;2022-08-01T11:56:08;99794.59;;;28.50;40.21
59110;BME280;44895;47.438;18.978;2022-08-01T11:59:11;99771.59;;;28.42;40.13
59110;BME280;44895;47.438;18.978;2022-08-01T12:02:26;99791.81;;;28.50;39.63
59110;BME280;44895;47.438;18.978;2022-08-01T12:05:32;99787.88;;;28.47;37.93
59110;BME280;44895;47.438;18.978;2022-08-01T12:08:36;99790.16;;;28.53;38.07
59110;BME280;44895;47.438;18.978;2022-08-01T12:11:40;99791.31;;;28.55;36.50
59110;BME280;44895;47.438;18.978;2022-08-01T12:14:45;99790.38;;;28.66;36.50
59110;BME280;44895;47.438;18.978;2022-08-01T12:17:57;99794.66;;;28.74;36.77
59110;BME280;44895;47.438;18.978;2022-08-01T12:21:04;99801.16;;;28.67;38.01
59110;BME280;44895;47.438;18.978;2022-08-01T12:24:08;99784.50;;;28.84;39.85
59110;BME280;44895;47.438;18.978;2022-08-01T12:27:23;99794.59;;;28.77;41.17
59110;BME280;44895;47.438;18.978;2022-08-01T12:30:28;99804.47;;;28.58;40.22
59110;BME280;44895;47.438;18.978;2022-08-01T12:33:34;99793.44;;;28.47;40.10
59110;BME280;44895;47.438;18.978;2022-08-01T12:36:37;99797.91;;;28.18;40.91
59110;BME280;44895;47.438;18.978;2022-08-01T12:39:42;99790.78;;;27.86;40.23
59110;BME280;44895;47.438;18.978;2022-08-01T12:42:48;99787.09;;;27.92;40.05
59110;BME280;44895;47.438;18.978;2022-08-01T12:45:52;99784.38;;;27.85;41.36
59110;BME280;44895;47.438;18.978;2022-08-01T12:48:56;99786.34;;;27.88;41.09
59110;BME280;44895;47.438;18.978;2022-08-01T12:52:00;99786.91;;;27.76;41.58
59110;BME280;44895;47.438;18.978;2022-08-01T12:58:11;99787.72;;;27.73;42.02
59110;BME280;44895;47.438;18.978;2022-08-01T13:01:15;99780.69;;;27.92;42.16
59110;BME280;44895;47.438;18.978;2022-08-01T13:04:20;99773.44;;;27.98;42.82
59110;BME280;44895;47.438;18.978;2022-08-01T13:07:41;99777.50;;;27.93;42.87
59110;BME280;44895;47.438;18.978;2022-08-01T13:10:45;99779.72;;;28.06;43.48
59110;BME280;44895;47.438;18.978;2022-08-01T13:13:50;99775.38;;;28.05;42.92
59110;BME280;44895;47.438;18.978;2022-08-01T13:16:54;99774.53;;;28.08;42.83
59110;BME280;44895;47.438;18.978;2022-08-01T13:19:58;99770.56;;;28.05;42.20
59110;BME280;44895;47.438;18.978;2022-08-01T13:26:15;99769.31;;;28.10;42.17
59110;BME280;44895;47.438;18.978;2022-08-01T13:29:21;99771.00;;;28.04;42.42
59110;BME280;44895;47.438;18.978;2022-08-01T13:32:26;99768.28;;;27.96;42.89
59110;BME280;44895;47.438;18.978;2022-08-01T13:35:30;99759.84;;;28.04;42.46
59110;BME280;44895;47.438;18.978;2022-08-01T13:38:33;99766.59;;;28.06;42.90
59110;BME280;44895;47.438;18.978;2022-08-01T13:41:55;99766.94;;;28.08;42.75
59110;BME280;44895;47.438;18.978;2022-08-01T13:44:59;99756.16;;;28.10;42.55
59110;BME280;44895;47.438;18.978;2022-08-01T13:48:04;99756.16;;;28.10;43.14
59110;BME280;44895;47.438;18.978;2022-08-01T13:51:07;99762.50;;;27.83;43.80
59110;BME280;44895;47.438;18.978;2022-08-01T13:54:11;99757.97;;;27.62;44.22
59110;BME280;44895;47.438;18.978;2022-08-01T13:57:15;99756.53;;;27.81;43.94
59110;BME280;44895;47.438;18.978;2022-08-01T14:00:20;99752.09;;;27.84;43.99
59110;BME280;44895;47.438;18.978;2022-08-01T14:03:23;99750.47;;;27.87;43.54
59110;BME280;44895;47.438;18.978;2022-08-01T14:06:27;99751.81;;;28.06;44.71
59110;BME280;44895;47.438;18.978;2022-08-01T14:09:31;99754.28;;;28.00;44.84
59110;BME280;44895;47.438;18.978;2022-08-01T14:12:36;99749.53;;;27.97;45.02
59110;BME280;44895;47.438;18.978;2022-08-01T14:15:40;99751.03;;;28.05;45.26
59110;BME280;44895;47.438;18.978;2022-08-01T14:18:44;99754.84;;;28.19;44.05
59110;BME280;44895;47.438;18.978;2022-08-01T14:21:47;99753.47;;;28.03;44.16
59110;BME280;44895;47.438;18.978;2022-08-01T14:24:51;99751.72;;;28.13;44.40
59110;BME280;44895;47.438;18.978;2022-08-01T14:27:55;99756.00;;;28.21;42.94
59110;BME280;44895;47.438;18.978;2022-08-01T14:30:59;99761.34;;;28.08;42.69
59110;BME280;44895;47.438;18.978;2022-08-01T14:34:03;99753.91;;;27.98;43.45
59110;BME280;44895;47.438;18.978;2022-08-01T14:37:06;99748.75;;;27.96;43.69
59110;BME280;44895;47.438;18.978;2022-08-01T14:40:10;99748.28;;;28.02;43.42
59110;BME280;44895;47.438;18.978;2022-08-01T14:43:15;99747.59;;;27.94;43.54
59110;BME280;44895;47.438;18.978;2022-08-01T14:46:18;99746.06;;;27.89;43.53
59110;BME280;44895;47.438;18.978;2022-08-01T14:49:22;99746.69;;;28.00;44.07
59110;BME280;44895;47.438;18.978;2022-08-01T14:52:26;99758.31;;;27.95;44.96
59110;BME280;44895;47.438;18.978;2022-08-01T14:55:29;99755.28;;;27.86;45.28
59110;BME280;44895;47.438;18.978;2022-08-01T14:58:33;99749.31;;;27.57;45.85
59110;BME280;44895;47.438;18.978;2022-08-01T15:01:37;99748.38;;;27.67;46.38
59110;BME280;44895;47.438;18.978;2022-08-01T15:04:41;99749.16;;;27.67;46.18
59110;BME280;44895;47.438;18.978;2022-08-01T15:07:44;99739.59;;;27.69;46.67
59110;BME280;44895;47.438;18.978;2022-08-01T15:10:48;99748.28;;;27.74;46.65
59110;BME280;44895;47.438;18.978;2022-08-01T15:13:52;99741.53;;;27.72;45.95
59110;BME280;44895;47.438;18.978;2022-08-01T15:17:15;99747.13;;;27.72;46.41
59110;BME280;44895;47.438;18.978;2022-08-01T15:20:19;99756.28;;;27.72;45.68
59110;BME280;44895;47.438;18.978;2022-08-01T15:23:22;99753.53;;;27.69;45.90
59110;BME280;44895;47.438;18.978;2022-08-01T15:26:27;99750.75;;;27.69;45.35
59110;BME280;44895;47.438;18.978;2022-08-01T15:29:32;99764.03;;;27.57;45.18
59110;BME280;44895;47.438;18.978;2022-08-01T15:32:37;99762.44;;;27.56;45.18
59110;BME280;44895;47.438;18.978;2022-08-01T15:35:41;99764.44;;;27.56;45.68
59110;BME280;44895;47.438;18.978;2022-08-01T15:38:46;99755.34;;;27.52;45.28
59110;BME280;44895;47.438;18.978;2022-08-01T15:41:50;99757.38;;;27.47;44.89
59110;BME280;44895;47.438;18.978;2022-08-01T15:44:54;99755.41;;;27.48;45.01
59110;BME280;44895;47.438;18.978;2022-08-01T15:47:57;99763.28;;;27.53;43.93
59110;BME280;44895;47.438;18.978;2022-08-01T15:51:01;99767.28;;;27.52;43.72
59110;BME280;44895;47.438;18.978;2022-08-01T15:54:05;99759.38;;;27.47;44.47
59110;BME280;44895;47.438;18.978;2022-08-01T15:57:08;99761.47;;;27.39;44.78
59110;BME280;44895;47.438;18.978;2022-08-01T16:00:12;99763.78;;;27.44;44.80
59110;BME280;44895;47.438;18.978;2022-08-01T16:03:18;99755.91;;;27.39;44.85
59110;BME280;44895;47.438;18.978;2022-08-01T16:06:22;99758.72;;;27.32;45.03
59110;BME280;44895;47.438;18.978;2022-08-01T16:09:26;99760.78;;;27.28;45.63
59110;BME280;44895;47.438;18.978;2022-08-01T16:12:30;99764.38;;;27.25;45.89
59110;BME280;44895;47.438;18.978;2022-08-01T16:15:35;99759.22;;;27.23;45.90
59110;BME280;44895;47.438;18.978;2022-08-01T16:18:39;99760.81;;;27.24;45.43
59110;BME280;44895;47.438;18.978;2022-08-01T16:21:43;99764.81;;;27.23;45.40
59110;BME280;44895;47.438;18.978;2022-08-01T16:24:46;99773.53;;;27.25;45.48
59110;BME280;44895;47.438;18.978;2022-08-01T16:27:50;99767.97;;;27.25;46.38
59110;BME280;44895;47.438;18.978;2022-08-01T16:30:54;99768.84;;;27.18;46.22
59110;BME280;44895;47.438;18.978;2022-08-01T16:33:58;99764.44;;;27.21;45.61
59110;BME280;44895;47.438;18.978;2022-08-01T16:37:02;99768.84;;;27.18;45.73
59110;BME280;44895;47.438;18.978;2022-08-01T16:40:06;99763.66;;;27.17;45.46